Terminal Aerodrome Forecast
Issued by NWS

Home | Current Version | Previous Version | Text Only | Print | Product List | Glossary On
Versions: 1 2 3 4 5 6 7 8 9 10 11 12 13 14 15 16 17 18 19 20 21 22 23 24
000
FTUS43 KDLH 210500
TAFHYR
TAF
KHYR 210538Z 2106/2206 20010KT P6SM BKN050
      TEMPO 2108/2112 3SM BR
     FM211500 20007KT P6SM SCT025
     FM211800 19010KT P6SM BKN040 PROB30 2204/2206 5SM TSRA BR
      BKN025CB=

USA.gov is the U.S. government's official web portal to all federal, state and local government web resources and services.